Time;durP1;ratioP1;P1;durP2;ratioP2;P2;SDS_P1;SDS_P2;PMS_P1;PMS_P2;Temp;Humidity;BMP_temperature;BMP_pressure;BME280_temperature;BME280_humidity;BME280_pressure;Samples;Min_cycle;Max_cycle;Signal;HPM_P1;HPM_P2
2023/08/12 00:00:55;;;;;;;7.07;2.03;;;17.90;99.90;;;;;;5060569;28;20041;-88
2023/08/12 00:03:22;;;;;;;6.35;1.80;;;17.90;99.90;;;;;;5068665;28;20147;-90
2023/08/12 00:05:49;;;;;;;12.68;2.30;;;17.90;99.90;;;;;;5066377;28;20399;-88
2023/08/12 00:11:04;;;;;;;8.23;1.95;;;17.90;99.90;;;;;;5088902;28;20052;-89
2023/08/12 00:13:31;;;;;;;6.57;2.10;;;17.90;99.90;;;;;;5073964;28;20055;-89
2023/08/12 00:15:58;;;;;;;9.88;2.20;;;17.90;99.90;;;;;;5063422;28;20127;-89
2023/08/12 00:18:25;;;;;;;6.78;1.90;;;17.90;99.90;;;;;;5058089;28;20445;-89
2023/08/12 00:20:52;;;;;;;7.68;1.80;;;17.90;99.90;;;;;;5064761;28;20051;-89
2023/08/12 00:23:19;;;;;;;7.60;2.13;;;17.90;99.90;;;;;;5067174;28;20041;-88
2023/08/12 00:25:46;;;;;;;8.70;2.15;;;17.80;99.90;;;;;;5067825;28;20387;-87
2023/08/12 00:31:17;;;;;;;9.40;1.90;;;17.80;99.90;;;;;;5064236;28;20471;-88
2023/08/12 00:33:46;;;;;;;8.40;2.00;;;17.80;99.90;;;;;;5086715;28;20378;-88
2023/08/12 00:38:45;;;;;;;9.50;2.15;;;17.80;99.90;;;;;;5054783;28;20045;-89
2023/08/12 00:41:12;;;;;;;10.63;2.25;;;17.80;99.90;;;;;;5053443;28;20518;-88
2023/08/12 00:43:40;;;;;;;10.98;1.95;;;17.80;99.90;;;;;;5079556;28;20445;-90
2023/08/12 00:46:07;;;;;;;7.53;1.83;;;17.80;99.90;;;;;;5062967;28;20058;-89
2023/08/12 00:48:33;;;;;;;5.55;2.03;;;17.80;99.90;;;;;;5073738;28;20372;-89
2023/08/12 00:51:00;;;;;;;6.80;2.05;;;17.80;99.90;;;;;;5059704;28;20041;-88
2023/08/12 00:53:28;;;;;;;7.28;1.88;;;17.80;99.90;;;;;;5084893;28;20068;-88
2023/08/12 00:55:55;;;;;;;7.07;1.80;;;17.70;99.90;;;;;;5088019;28;20136;-88
2023/08/12 00:58:24;;;;;;;10.00;1.98;;;17.70;99.90;;;;;;5066489;28;20059;-89
2023/08/12 01:00:51;;;;;;;9.82;1.73;;;17.70;99.90;;;;;;5050811;28;20059;-88
2023/08/12 01:03:19;;;;;;;9.57;2.03;;;17.70;99.90;;;;;;5063101;28;20056;-88
2023/08/12 01:05:46;;;;;;;6.20;1.83;;;17.70;99.90;;;;;;5061109;28;20048;-88
2023/08/12 01:08:15;;;;;;;10.23;1.83;;;17.70;99.90;;;;;;5077658;28;20122;-88
2023/08/12 01:10:42;;;;;;;12.15;2.17;;;17.70;99.90;;;;;;5061720;28;20087;-88
2023/08/12 01:13:09;;;;;;;8.25;1.80;;;17.70;99.90;;;;;;5062116;28;20036;-88
2023/08/12 01:15:36;;;;;;;7.90;2.00;;;17.60;99.90;;;;;;5083952;28;20423;-88
2023/08/12 01:21:06;;;;;;;7.13;1.88;;;17.50;99.90;;;;;;5054200;28;20112;-89
2023/08/12 01:23:33;;;;;;;8.90;1.70;;;17.50;99.90;;;;;;5081992;28;20044;-88
2023/08/12 01:26:00;;;;;;;7.40;1.95;;;17.50;99.90;;;;;;5066422;28;20048;-88
2023/08/12 01:28:27;;;;;;;7.18;1.70;;;17.50;99.90;;;;;;5077210;28;20045;-88
2023/08/12 01:30:57;;;;;;;9.65;2.38;;;17.50;99.90;;;;;;5067124;28;20041;-88
2023/08/12 01:33:24;;;;;;;14.82;2.25;;;17.50;99.90;;;;;;5053423;28;20057;-88
2023/08/12 01:35:51;;;;;;;5.38;1.90;;;17.50;99.90;;;;;;5053556;28;20045;-89
2023/08/12 01:41:06;;;;;;;12.98;2.50;;;17.40;99.90;;;;;;5066969;28;20053;-87
2023/08/12 01:43:33;;;;;;;9.02;2.08;;;17.40;99.90;;;;;;5059829;28;20044;-89
2023/08/12 01:46:01;;;;;;;11.95;2.38;;;17.40;99.90;;;;;;5087151;28;20082;-88
2023/08/12 01:48:28;;;;;;;10.18;2.20;;;17.30;99.90;;;;;;5077743;28;20451;-89
2023/08/12 01:50:55;;;;;;;7.35;2.15;;;17.30;99.90;;;;;;5078859;28;20451;-88
2023/08/12 01:53:21;;;;;;;9.30;2.20;;;17.20;99.90;;;;;;5088815;28;20135;-88
2023/08/12 01:55:48;;;;;;;6.22;1.95;;;17.30;99.90;;;;;;5077137;28;20378;-88
2023/08/12 01:58:16;;;;;;;11.07;2.60;;;17.20;99.90;;;;;;5074452;28;20052;-89
2023/08/12 02:00:43;;;;;;;11.18;2.35;;;17.20;99.90;;;;;;5047434;28;20056;-88
2023/08/12 02:03:09;;;;;;;10.45;2.42;;;17.20;99.90;;;;;;5085391;28;20045;-89
2023/08/12 02:05:37;;;;;;;9.25;2.42;;;17.20;99.90;;;;;;5057211;28;20037;-87
2023/08/12 02:08:06;;;;;;;8.45;2.05;;;17.10;99.90;;;;;;5057119;28;20555;-88
2023/08/12 02:10:34;;;;;;;7.82;2.55;;;17.00;99.90;;;;;;5066569;28;20032;-88
2023/08/12 02:13:02;;;;;;;9.40;2.10;;;17.00;99.90;;;;;;5060529;28;20037;-88
2023/08/12 02:15:29;;;;;;;10.00;2.75;;;16.90;99.90;;;;;;5074910;28;20588;-87
2023/08/12 02:17:56;;;;;;;11.18;2.40;;;16.90;99.90;;;;;;5066531;28;20040;-88
2023/08/12 02:20:23;;;;;;;7.60;2.17;;;16.90;99.90;;;;;;5058954;28;20048;-89
2023/08/12 02:22:50;;;;;;;6.50;2.25;;;16.80;99.90;;;;;;5072336;28;20475;-88
2023/08/12 02:25:17;;;;;;;11.45;2.30;;;16.80;99.90;;;;;;5061851;28;20052;-88
2023/08/12 02:27:45;;;;;;;6.88;2.30;;;16.70;99.90;;;;;;5070116;28;20040;-88
2023/08/12 02:30:12;;;;;;;9.05;2.55;;;16.60;99.90;;;;;;5067272;28;20477;-88
2023/08/12 02:32:39;;;;;;;9.85;3.03;;;16.60;99.90;;;;;;5061892;28;20045;-89
2023/08/12 02:35:06;;;;;;;12.73;2.50;;;16.50;99.90;;;;;;5064736;28;20040;-88
2023/08/12 02:40:04;;;;;;;6.88;2.40;;;16.50;99.90;;;;;;5063036;28;20057;-88
2023/08/12 02:42:31;;;;;;;10.90;2.50;;;16.40;99.90;;;;;;5062776;28;20127;-88
2023/08/12 02:44:59;;;;;;;7.13;2.50;;;16.40;99.90;;;;;;5087959;28;20043;-88
2023/08/12 02:47:29;;;;;;;8.02;2.38;;;16.30;99.90;;;;;;5090155;28;20524;-89
2023/08/12 02:49:56;;;;;;;9.93;2.72;;;16.30;99.90;;;;;;5084097;28;20036;-89
2023/08/12 02:52:23;;;;;;;7.75;2.53;;;16.30;99.90;;;;;;5065254;28;20044;-89
2023/08/12 02:54:49;;;;;;;11.05;2.75;;;16.20;99.90;;;;;;5068253;28;20072;-88
2023/08/12 02:57:17;;;;;;;9.60;2.30;;;16.10;99.90;;;;;;5078839;28;20066;-88
2023/08/12 02:59:43;;;;;;;7.10;2.30;;;16.10;99.90;;;;;;5056244;28;20529;-88
2023/08/12 03:02:10;;;;;;;9.43;2.80;;;16.10;99.90;;;;;;5056216;28;20529;-88
2023/08/12 03:04:37;;;;;;;18.00;2.90;;;16.00;99.90;;;;;;5066642;28;20064;-87
2023/08/12 03:07:04;;;;;;;11.20;3.10;;;15.90;99.90;;;;;;5055634;28;20048;-89
2023/08/12 03:09:32;;;;;;;8.80;2.65;;;15.90;99.90;;;;;;5056616;28;20124;-88
2023/08/12 03:12:01;;;;;;;8.18;2.70;;;15.90;99.90;;;;;;5070594;28;20577;-88
2023/08/12 03:14:28;;;;;;;10.88;3.03;;;15.80;99.90;;;;;;5071164;28;20075;-89
2023/08/12 03:19:44;;;;;;;9.77;2.70;;;15.80;99.90;;;;;;5064192;28;20059;-89
2023/08/12 03:22:11;;;;;;;11.00;3.22;;;15.80;99.90;;;;;;5069469;28;20041;-89
2023/08/12 03:24:39;;;;;;;8.77;3.03;;;15.70;99.90;;;;;;5048732;28;20441;-88
2023/08/12 03:29:37;;;;;;;10.27;3.28;;;15.70;99.90;;;;;;5072227;28;20040;-88
2023/08/12 03:32:04;;;;;;;13.18;3.70;;;15.70;99.90;;;;;;5094895;28;20132;-87
2023/08/12 03:34:31;;;;;;;14.38;3.35;;;15.70;99.90;;;;;;5067926;28;20041;-88
2023/08/12 03:37:00;;;;;;;14.07;3.75;;;15.70;99.90;;;;;;5055291;28;20041;-88
2023/08/12 03:39:27;;;;;;;15.45;4.78;;;15.60;99.90;;;;;;5043883;28;20056;-88
2023/08/12 03:41:54;;;;;;;14.27;3.50;;;15.70;99.90;;;;;;5047637;28;20467;-88
2023/08/12 03:44:21;;;;;;;18.25;4.55;;;15.70;99.90;;;;;;5009233;28;20053;-88
2023/08/12 03:49:39;;;;;;;16.50;3.92;;;15.90;99.90;;;;;;5044228;28;20078;-88
2023/08/12 03:52:07;;;;;;;10.18;3.70;;;16.00;99.90;;;;;;5018958;28;20037;-88
2023/08/12 03:54:34;;;;;;;16.02;3.90;;;16.00;99.90;;;;;;5049578;28;20037;-88
2023/08/12 03:57:03;;;;;;;17.20;4.47;;;16.00;99.90;;;;;;5012192;28;20045;-88
2023/08/12 03:59:30;;;;;;;13.35;4.22;;;16.00;99.90;;;;;;5030698;28;20053;-88
2023/08/12 04:01:57;;;;;;;10.13;4.65;;;16.00;99.90;;;;;;5019859;28;20063;-88
2023/08/12 04:04:25;;;;;;;11.43;4.45;;;16.10;99.90;;;;;;5028008;28;20132;-88
2023/08/12 04:09:41;;;;;;;11.60;4.35;;;16.20;99.90;;;;;;5039951;28;20460;-88
2023/08/12 04:12:08;;;;;;;13.73;5.45;;;16.10;99.90;;;;;;5035362;28;20036;-88
2023/08/12 04:14:35;;;;;;;11.65;5.05;;;16.10;99.90;;;;;;5055921;28;20037;-89
2023/08/12 04:19:47;;;;;;;16.65;5.20;;;16.20;99.90;;;;;;5041603;28;20141;-88
2023/08/12 04:22:14;;;;;;;18.17;5.35;;;16.20;99.90;;;;;;5001747;28;20125;-89
2023/08/12 04:24:41;;;;;;;17.50;5.55;;;16.30;99.90;;;;;;5017794;28;20052;-88
2023/08/12 04:30:20;;;;;;;17.37;5.40;;;16.30;99.90;;;;;;5023726;28;20365;-89
2023/08/12 04:32:48;;;;;;;20.80;6.05;;;16.30;99.90;;;;;;5014415;28;20290;-87
2023/08/12 04:35:15;;;;;;;13.85;5.75;;;16.30;99.90;;;;;;5030966;28;20102;-88
2023/08/12 04:40:28;;;;;;;15.30;5.82;;;16.30;99.90;;;;;;5053934;28;20059;-88
2023/08/12 04:42:56;;;;;;;16.13;5.32;;;16.40;99.90;;;;;;5054644;28;20102;-88
2023/08/12 04:45:23;;;;;;;15.88;5.43;;;16.40;99.90;;;;;;5062670;28;20055;-89
2023/08/12 04:47:51;;;;;;;21.67;6.07;;;16.40;99.90;;;;;;5058360;28;20033;-89
2023/08/12 04:50:19;;;;;;;15.45;5.57;;;16.40;99.90;;;;;;5063635;28;20040;-88
2023/08/12 04:52:46;;;;;;;15.27;5.22;;;16.40;99.90;;;;;;5053899;28;20033;-88
2023/08/12 04:55:13;;;;;;;19.75;4.93;;;16.40;99.90;;;;;;5065243;28;20095;-89
2023/08/12 05:00:12;;;;;;;19.33;5.22;;;16.50;99.90;;;;;;5065483;28;20053;-90
2023/08/12 05:02:39;;;;;;;14.15;4.95;;;16.50;99.90;;;;;;5065557;28;20052;-89
2023/08/12 05:05:06;;;;;;;15.82;4.72;;;16.60;99.90;;;;;;5066817;28;20062;-89
2023/08/12 05:10:42;;;;;;;16.23;3.83;;;16.60;99.90;;;;;;5057097;28;20029;-89
2023/08/12 05:13:09;;;;;;;16.50;3.65;;;16.60;99.90;;;;;;5056399;28;20468;-88
2023/08/12 05:15:36;;;;;;;14.73;3.72;;;16.50;99.90;;;;;;5061294;28;20101;-88
2023/08/12 05:20:51;;;;;;;14.32;3.70;;;16.40;99.90;;;;;;5075829;28;20132;-89
2023/08/12 05:23:18;;;;;;;12.20;3.30;;;16.40;99.90;;;;;;5066256;28;20044;-88
2023/08/12 05:25:45;;;;;;;12.50;3.05;;;16.40;99.90;;;;;;5064365;28;20041;-89
2023/08/12 05:31:00;;;;;;;14.70;3.10;;;16.30;99.90;;;;;;5078815;28;20036;-89
2023/08/12 05:33:27;;;;;;;12.63;3.38;;;16.40;99.90;;;;;;5073054;28;20040;-89
2023/08/12 05:35:54;;;;;;;15.00;3.50;;;16.40;99.90;;;;;;5058783;28;20111;-89
2023/08/12 05:41:08;;;;;;;15.02;2.45;;;16.50;99.90;;;;;;5056731;28;20088;-89
2023/08/12 05:43:35;;;;;;;13.07;3.30;;;16.50;99.90;;;;;;5069245;28;20067;-88
2023/08/12 05:46:02;;;;;;;14.48;3.08;;;16.60;99.90;;;;;;5058936;28;20039;-89
2023/08/12 05:48:29;;;;;;;21.42;3.40;;;16.60;99.90;;;;;;5077036;28;20076;-88
2023/08/12 05:50:56;;;;;;;10.00;2.65;;;16.70;99.90;;;;;;5063006;28;20064;-89
2023/08/12 05:53:24;;;;;;;13.55;3.00;;;16.70;99.90;;;;;;5048540;28;20045;-89
2023/08/12 05:55:51;;;;;;;11.18;2.95;;;16.80;99.90;;;;;;5062599;28;20044;-88
2023/08/12 06:01:04;;;;;;;13.90;3.22;;;16.80;99.90;;;;;;5071223;28;20123;-89
2023/08/12 06:03:30;;;;;;;14.20;2.63;;;16.90;99.90;;;;;;5073208;28;20044;-89
2023/08/12 06:05:57;;;;;;;14.07;2.45;;;17.00;99.90;;;;;;5073316;28;20044;-88
2023/08/12 06:08:24;;;;;;;11.25;2.75;;;17.00;99.90;;;;;;5052621;28;20062;-88
2023/08/12 06:10:53;;;;;;;11.02;2.78;;;17.10;99.90;;;;;;5048676;28;20127;-88
2023/08/12 06:13:20;;;;;;;12.13;2.72;;;17.20;99.90;;;;;;5084691;28;20041;-88
2023/08/12 06:15:46;;;;;;;12.57;3.08;;;17.30;99.90;;;;;;5070109;28;20062;-88
2023/08/12 06:21:17;;;;;;;10.63;2.65;;;17.50;99.90;;;;;;5075631;28;20508;-88
2023/08/12 06:23:44;;;;;;;11.57;3.08;;;17.60;99.90;;;;;;5048415;28;20079;-89
2023/08/12 06:26:12;;;;;;;14.93;2.78;;;17.70;99.90;;;;;;5072319;28;20367;-87
2023/08/12 06:28:38;;;;;;;10.30;2.65;;;17.70;99.90;;;;;;5092876;28;20047;-88
2023/08/12 06:31:05;;;;;;;15.30;3.03;;;17.70;99.90;;;;;;5090744;28;20070;-88
2023/08/12 06:33:32;;;;;;;14.45;3.60;;;17.70;99.90;;;;;;5063044;28;20111;-87
2023/08/12 06:38:46;;;;;;;11.88;2.40;;;17.80;99.90;;;;;;5084845;28;20032;-87
2023/08/12 06:41:13;;;;;;;15.13;2.83;;;18.00;99.90;;;;;;5051656;28;20046;-88
2023/08/12 06:43:39;;;;;;;20.00;3.17;;;18.00;99.90;;;;;;5044029;28;20060;-88
2023/08/12 06:49:10;;;;;;;16.75;2.78;;;18.10;99.90;;;;;;5041695;28;20029;-88
2023/08/12 06:51:36;;;;;;;16.95;3.60;;;18.20;99.90;;;;;;5024789;28;20132;-87
2023/08/12 06:54:04;;;;;;;15.60;2.83;;;18.30;99.90;;;;;;5018968;28;20087;-88
2023/08/12 06:59:19;;;;;;;15.35;2.80;;;18.40;99.90;;;;;;5033012;28;20045;-87
2023/08/12 07:02:03;;;;;;;12.27;2.75;;;18.40;99.90;;;;;;5030733;28;20071;-87
2023/08/12 07:04:30;;;;;;;15.65;2.80;;;18.50;99.90;;;;;;5023045;28;20373;-87
2023/08/12 07:09:42;;;;;;;11.43;2.80;;;18.60;99.90;;;;;;5032704;28;20468;-88
2023/08/12 07:12:09;;;;;;;12.68;2.53;;;18.90;99.90;;;;;;5021891;28;20077;-87
2023/08/12 07:14:37;;;;;;;18.85;3.22;;;19.00;99.90;;;;;;5020202;28;20683;-87
2023/08/12 07:20:08;;;;;;;15.15;2.45;;;19.10;99.90;;;;;;5032924;28;20029;-86
2023/08/12 07:22:35;;;;;;;13.43;2.60;;;19.20;99.90;;;;;;5031729;28;20049;-87
2023/08/12 07:25:02;;;;;;;12.68;2.85;;;19.30;99.90;;;;;;5030011;28;20467;-86
2023/08/12 07:27:30;;;;;;;12.48;2.60;;;19.40;99.90;;;;;;5029035;28;20033;-86
2023/08/12 07:29:56;;;;;;;11.50;2.47;;;19.30;99.90;;;;;;5050545;28;20105;-85
2023/08/12 07:32:23;;;;;;;19.60;3.03;;;19.20;99.90;;;;;;5021103;28;20480;-86
2023/08/12 07:34:50;;;;;;;14.27;2.42;;;19.40;99.90;;;;;;5020332;28;20048;-86
2023/08/12 07:37:17;;;;;;;12.48;2.67;;;19.50;99.90;;;;;;5057969;28;20056;-85
2023/08/12 07:39:44;;;;;;;13.52;2.85;;;19.60;99.90;;;;;;5060043;28;20052;-86
2023/08/12 07:42:11;;;;;;;15.35;2.67;;;19.70;99.90;;;;;;5060271;28;20468;-86
2023/08/12 07:44:38;;;;;;;13.80;2.63;;;19.70;99.90;;;;;;5071001;28;20056;-86
2023/08/12 07:50:10;;;;;;;15.70;2.70;;;19.90;99.90;;;;;;5074666;28;20123;-86
2023/08/12 07:52:37;;;;;;;13.50;2.50;;;20.00;99.90;;;;;;5062681;28;20037;-86
2023/08/12 07:55:04;;;;;;;13.73;2.72;;;19.80;99.90;;;;;;5079063;28;20423;-87
2023/08/12 08:00:16;;;;;;;13.85;2.72;;;20.10;99.90;;;;;;5071752;28;20463;-88
2023/08/12 08:02:43;;;;;;;16.45;2.72;;;20.40;99.90;;;;;;5049464;28;20045;-87
2023/08/12 08:05:10;;;;;;;15.38;2.80;;;20.50;99.90;;;;;;5081704;28;20047;-87
2023/08/12 08:10:40;;;;;;;17.40;3.03;;;20.30;99.90;;;;;;5059118;28;20075;-81
2023/08/12 08:13:07;;;;;;;15.80;2.60;;;20.30;99.90;;;;;;5073806;28;20083;-89
2023/08/12 08:15:33;;;;;;;19.30;3.17;;;20.40;99.90;;;;;;5077784;28;20072;-84
2023/08/12 08:18:03;;;;;;;12.77;2.17;;;20.50;99.90;;;;;;5084286;28;20048;-86
2023/08/12 08:20:30;;;;;;;12.85;3.13;;;20.70;99.90;;;;;;5055769;28;20159;-86
2023/08/12 08:22:56;;;;;;;13.32;2.45;;;20.90;99.90;;;;;;5053716;28;20040;-83
2023/08/12 08:25:23;;;;;;;14.30;2.92;;;21.20;99.90;;;;;;5057658;28;20037;-82
2023/08/12 08:30:35;;;;;;;16.45;2.90;;;21.50;99.90;;;;;;5075435;28;20099;-84
2023/08/12 08:33:02;;;;;;;16.08;2.30;;;21.70;99.90;;;;;;5067862;28;20120;-83
2023/08/12 08:35:29;;;;;;;16.35;2.70;;;21.80;99.90;;;;;;5085566;28;20406;-84
2023/08/12 08:37:56;;;;;;;13.15;2.20;;;21.80;99.90;;;;;;5074006;28;20044;-84
2023/08/12 08:40:22;;;;;;;13.98;2.47;;;21.70;99.90;;;;;;5049047;28;20053;-84
2023/08/12 08:42:49;;;;;;;15.85;2.58;;;21.90;99.90;;;;;;5031429;28;20072;-84
2023/08/12 08:45:16;;;;;;;10.10;1.92;;;22.00;99.90;;;;;;5017376;28;20053;-85
2023/08/12 08:50:29;;;;;;;9.02;1.92;;;22.20;99.90;;;;;;5047211;28;20048;-84
2023/08/12 08:52:56;;;;;;;12.98;2.35;;;22.30;99.90;;;;;;5026986;28;20032;-84
2023/08/12 08:55:23;;;;;;;13.65;1.92;;;22.40;99.90;;;;;;5045752;28;20349;-84
2023/08/12 08:57:51;;;;;;;15.32;2.83;;;22.60;99.90;;;;;;5025793;28;20042;-84
2023/08/12 09:00:18;;;;;;;15.52;2.22;;;22.60;99.90;;;;;;5038519;28;20056;-84
2023/08/12 09:02:45;;;;;;;13.48;2.40;;;22.60;99.90;;;;;;5064761;28;20139;-84
2023/08/12 09:05:12;;;;;;;13.70;2.63;;;22.40;99.90;;;;;;5037758;28;20064;-84
2023/08/12 09:10:09;;;;;;;14.50;2.22;;;22.60;99.90;;;;;;5058096;28;20094;-85
2023/08/12 09:12:38;;;;;;;10.35;2.13;;;22.90;99.90;;;;;;5045571;28;20073;-85
2023/08/12 09:15:06;;;;;;;13.82;2.53;;;23.10;99.90;;;;;;5024111;28;20080;-85
2023/08/12 09:17:34;;;;;;;8.98;2.00;;;23.00;99.90;;;;;;5018706;28;20113;-81
2023/08/12 09:20:00;;;;;;;12.63;2.38;;;22.80;99.90;;;;;;5035801;28;20375;-86
2023/08/12 09:22:27;;;;;;;14.98;2.35;;;22.50;99.90;;;;;;5032268;28;20042;-83
2023/08/12 09:24:54;;;;;;;11.32;2.00;;;22.40;99.90;;;;;;5035087;28;20034;-83
2023/08/12 09:30:07;;;;;;;14.13;3.00;;;22.60;99.90;;;;;;5030714;28;20063;-84
2023/08/12 09:32:38;;;;;;;11.13;1.92;;;22.60;99.90;;;;;;5019027;28;20038;-83
2023/08/12 09:35:05;;;;;;;14.95;2.67;;;22.90;99.90;;;;;;5033860;28;20482;-84
2023/08/12 09:37:35;;;;;;;20.08;2.85;;;22.70;99.90;;;;;;5037869;28;20514;-83
2023/08/12 09:40:05;;;;;;;12.38;2.15;;;23.00;99.90;;;;;;5063537;28;20049;-84
2023/08/12 09:42:31;;;;;;;11.75;1.98;;;23.30;99.90;;;;;;5046040;28;20045;-86
2023/08/12 09:44:58;;;;;;;9.30;2.55;;;23.40;99.90;;;;;;5056505;28;20780;-86
2023/08/12 09:47:27;;;;;;;15.52;3.08;;;23.10;99.90;;;;;;5071245;28;20033;-85
2023/08/12 09:49:54;;;;;;;10.65;2.50;;;22.80;99.90;;;;;;5001533;28;20050;-85
2023/08/12 09:52:20;;;;;;;9.93;2.70;;;22.70;99.90;;;;;;5036538;28;20037;-83
2023/08/12 09:54:47;;;;;;;15.95;2.35;;;22.70;99.90;;;;;;5011106;28;20086;-84
2023/08/12 09:59:59;;;;;;;8.93;2.50;;;23.30;99.90;;;;;;5033283;28;20046;-84
2023/08/12 10:02:26;;;;;;;10.55;2.42;;;23.60;99.90;;;;;;5046755;28;20375;-83
2023/08/12 10:04:53;;;;;;;17.58;3.55;;;23.40;99.90;;;;;;5017825;28;20361;-83
2023/08/12 10:07:21;;;;;;;11.77;3.03;;;23.20;99.90;;;;;;5036761;28;20049;-83
2023/08/12 10:09:47;;;;;;;11.27;1.90;;;23.40;99.90;;;;;;5037711;28;20438;-84
2023/08/12 10:12:14;;;;;;;11.60;2.50;;;23.60;99.90;;;;;;5038996;28;20052;-85
2023/08/12 10:14:45;;;;;;;14.68;3.20;;;23.80;99.90;;;;;;5060686;28;20045;-85
2023/08/12 10:17:12;;;;;;;15.93;3.15;;;23.80;99.90;;;;;;5025686;28;20326;-83
2023/08/12 10:19:39;;;;;;;13.35;2.67;;;23.80;99.90;;;;;;5039682;28;20037;-85
2023/08/12 10:22:05;;;;;;;18.77;2.90;;;23.40;99.90;;;;;;5054645;28;20053;-83
2023/08/12 10:24:32;;;;;;;13.70;2.90;;;23.40;99.90;;;;;;5046200;28;20102;-85
2023/08/12 10:26:59;;;;;;;10.75;2.80;;;23.60;99.90;;;;;;5053718;28;20040;-84
2023/08/12 10:29:27;;;;;;;17.65;3.20;;;23.60;99.90;;;;;;5046287;28;20361;-85
2023/08/12 10:31:54;;;;;;;16.92;2.88;;;23.30;99.90;;;;;;5019746;28;20041;-85
2023/08/12 10:34:21;;;;;;;14.95;3.15;;;23.50;99.90;;;;;;5057181;28;20128;-86
2023/08/12 10:36:49;;;;;;;13.00;3.15;;;23.60;99.90;;;;;;5053957;28;20707;-84
2023/08/12 10:39:31;;;;;;;16.90;2.75;;;23.80;99.90;;;;;;5063638;28;20048;-82
2023/08/12 10:41:58;;;;;;;15.02;3.97;;;23.80;99.90;;;;;;5096136;28;20047;-83
2023/08/12 10:44:24;;;;;;;13.32;2.50;;;23.90;99.90;;;;;;5067538;28;20070;-85
2023/08/12 10:49:21;;;;;;;13.35;3.03;;;24.30;99.90;;;;;;5056022;28;20147;-85
2023/08/12 10:51:48;;;;;;;16.13;2.72;;;24.30;99.90;;;;;;5075063;28;20040;-84
2023/08/12 10:54:15;;;;;;;11.52;2.90;;;23.90;99.90;;;;;;5082192;28;20052;-84
2023/08/12 10:59:28;;;;;;;12.40;3.35;;;23.10;99.90;;;;;;5080662;28;20052;-84
2023/08/12 11:01:54;;;;;;;13.70;3.15;;;23.10;99.90;;;;;;5095871;28;20036;-83
2023/08/12 11:04:21;;;;;;;12.45;2.95;;;23.10;99.90;;;;;;5049757;28;20045;-83
2023/08/12 11:09:35;;;;;;;13.30;3.05;;;23.60;99.90;;;;;;5087143;28;20040;-84
2023/08/12 11:12:02;;;;;;;11.10;2.50;;;23.70;99.90;;;;;;5071079;28;20129;-83
2023/08/12 11:14:29;;;;;;;15.00;2.45;;;23.60;99.90;;;;;;5068467;28;20102;-82
2023/08/12 11:16:57;;;;;;;14.52;3.45;;;24.40;99.90;;;;;;5055150;28;20102;-82
2023/08/12 11:19:23;;;;;;;12.98;3.25;;;25.20;99.90;;;;;;5054818;28;20049;-82
2023/08/12 11:21:50;;;;;;;15.52;3.10;;;25.50;99.90;;;;;;5071229;28;20037;-83
2023/08/12 11:24:17;;;;;;;20.55;4.43;;;25.30;99.90;;;;;;5060272;28;20069;-83
2023/08/12 11:26:44;;;;;;;13.35;2.92;;;25.40;99.90;;;;;;5075815;28;20127;-83
2023/08/12 11:29:10;;;;;;;13.35;3.25;;;25.30;99.90;;;;;;5089866;28;20075;-81
2023/08/12 11:31:37;;;;;;;16.25;3.67;;;25.30;99.90;;;;;;5072748;28;20048;-80
2023/08/12 11:34:04;;;;;;;18.58;3.15;;;25.20;99.90;;;;;;5062530;28;20461;-79
2023/08/12 11:36:33;;;;;;;16.35;3.60;;;24.80;99.90;;;;;;5095034;28;20055;-81
2023/08/12 11:38:59;;;;;;;14.52;3.13;;;24.30;99.90;;;;;;5075943;28;20102;-80
2023/08/12 11:41:26;;;;;;;14.57;3.70;;;24.40;99.90;;;;;;5018910;28;20054;-83
2023/08/12 11:43:53;;;;;;;16.73;3.22;;;24.30;99.90;;;;;;5024966;28;20041;-87
2023/08/12 11:46:21;;;;;;;14.48;3.10;;;23.90;99.90;;;;;;5024569;28;20044;-84
2023/08/12 11:48:48;;;;;;;12.98;2.80;;;23.60;99.90;;;;;;5024133;28;20050;-82
2023/08/12 11:51:17;;;;;;;14.73;2.95;;;23.40;99.90;;;;;;5035623;28;20045;-83
2023/08/12 11:53:44;;;;;;;15.43;2.97;;;23.00;99.90;;;;;;5038910;28;20387;-86
2023/08/12 11:58:41;;;;;;;10.35;2.63;;;24.00;99.90;;;;;;5063505;28;20033;-84
2023/08/12 12:01:20;;;;;;;10.60;2.33;;;24.60;99.90;;;;;;5027034;28;20037;-84
2023/08/12 12:03:47;;;;;;;10.77;2.80;;;25.20;99.90;;;;;;5064818;28;20418;-85
2023/08/12 12:06:14;;;;;;;10.40;2.72;;;25.70;99.90;;;;;;5042927;28;20444;-86
2023/08/12 12:08:41;;;;;;;9.45;2.45;;;25.70;99.90;;;;;;5059462;28;20045;-85
2023/08/12 12:11:08;;;;;;;12.65;2.75;;;25.90;99.90;;;;;;5017562;28;20472;-82
2023/08/12 12:13:34;;;;;;;9.20;2.65;;;25.50;99.90;;;;;;5017556;28;20037;-82
2023/08/12 12:16:03;;;;;;;13.77;2.65;;;25.80;99.90;;;;;;5035219;28;20073;-84
2023/08/12 12:18:30;;;;;;;11.85;2.67;;;25.40;99.90;;;;;;5035102;28;20046;-83
2023/08/12 12:20:57;;;;;;;11.55;2.72;;;25.40;99.90;;;;;;5048098;28;20433;-81
2023/08/12 12:23:26;;;;;;;9.13;2.70;;;26.20;99.90;;;;;;5056433;28;20080;-81
2023/08/12 12:25:55;;;;;;;10.45;2.88;;;25.30;99.90;;;;;;5058333;28;20044;-83
2023/08/12 12:28:21;;;;;;;11.70;2.72;;;25.10;99.90;;;;;;5063188;28;20067;-83
2023/08/12 12:30:48;;;;;;;11.25;2.90;;;25.80;99.90;;;;;;5023455;28;20431;-83
2023/08/12 12:33:15;;;;;;;12.82;3.05;;;25.80;99.90;;;;;;5043397;28;20435;-84
2023/08/12 12:35:42;;;;;;;11.57;2.78;;;25.80;99.90;;;;;;5034880;28;20049;-84
2023/08/12 12:38:26;;;;;;;11.32;2.55;;;26.00;99.90;;;;;;5028437;28;20140;-84
2023/08/12 12:40:53;;;;;;;10.13;2.80;;;25.70;99.90;;;;;;5055022;28;20102;-85
2023/08/12 12:43:20;;;;;;;10.10;3.10;;;25.50;99.90;;;;;;5075077;28;20051;-85
2023/08/12 12:45:47;;;;;;;10.70;2.85;;;26.10;99.90;;;;;;5053945;28;20045;-85
2023/08/12 12:51:19;;;;;;;13.93;3.38;;;26.20;99.90;;;;;;5081727;28;20040;-86
2023/08/12 12:53:45;;;;;;;11.15;2.83;;;25.20;99.90;;;;;;5075160;28;20131;-84
2023/08/12 12:56:13;;;;;;;11.95;2.33;;;25.00;99.90;;;;;;5062216;28;20096;-82
2023/08/12 12:58:40;;;;;;;9.20;2.28;;;24.50;99.90;;;;;;5073750;28;20051;-83
2023/08/12 13:01:07;;;;;;;13.90;2.45;;;24.20;99.90;;;;;;5092906;28;20451;-84
2023/08/12 13:03:33;;;;;;;9.50;2.30;;;24.00;99.90;;;;;;5061018;28;20427;-84
2023/08/12 13:06:04;;;;;;;9.15;1.95;;;23.90;99.90;;;;;;5053304;28;20078;-85
2023/08/12 13:08:31;;;;;;;8.38;2.22;;;23.60;99.90;;;;;;5074523;28;20105;-85
2023/08/12 13:10:58;;;;;;;16.45;2.60;;;23.60;99.90;;;;;;5073214;28;20413;-84
2023/08/12 13:13:25;;;;;;;8.13;2.20;;;23.90;99.90;;;;;;5052907;28;20079;-83
2023/08/12 13:15:51;;;;;;;11.80;2.13;;;23.90;99.90;;;;;;5063198;28;20363;-83
2023/08/12 13:18:20;;;;;;;8.85;1.88;;;23.70;99.90;;;;;;5074245;28;20044;-84
2023/08/12 13:20:46;;;;;;;10.98;2.72;;;23.90;99.90;;;;;;5073410;28;20407;-83
2023/08/12 13:23:13;;;;;;;12.23;3.03;;;24.60;99.90;;;;;;5062108;28;20111;-82
2023/08/12 13:25:40;;;;;;;10.23;2.45;;;25.20;99.90;;;;;;5079071;28;20126;-82
2023/08/12 13:28:08;;;;;;;13.75;2.60;;;25.30;99.90;;;;;;5074557;28;20055;-81
2023/08/12 13:30:35;;;;;;;9.90;2.53;;;25.30;99.90;;;;;;5065965;28;20084;-83
2023/08/12 13:33:02;;;;;;;10.43;2.28;;;25.20;99.90;;;;;;5084242;28;20041;-82
2023/08/12 13:35:29;;;;;;;10.55;2.33;;;24.50;99.90;;;;;;5073153;28;20051;-84
2023/08/12 13:37:56;;;;;;;11.05;2.58;;;24.40;99.90;;;;;;5067537;28;20373;-82
2023/08/12 13:40:22;;;;;;;12.05;2.50;;;24.10;99.90;;;;;;5079323;28;20545;-82
2023/08/12 13:42:50;;;;;;;11.98;2.97;;;24.10;99.90;;;;;;5091600;28;20140;-84
2023/08/12 13:45:17;;;;;;;11.23;2.40;;;24.40;99.90;;;;;;5089483;28;20756;-83
2023/08/12 13:47:44;;;;;;;10.70;2.75;;;24.50;99.90;;;;;;5075479;28;20135;-85
2023/08/12 13:50:11;;;;;;;9.93;2.38;;;24.20;99.90;;;;;;5067275;28;20040;-84
2023/08/12 13:52:38;;;;;;;12.10;2.25;;;23.70;99.90;;;;;;5060596;28;20430;-88
2023/08/12 13:55:05;;;;;;;16.05;3.13;;;23.30;99.90;;;;;;5055419;28;20044;-87
2023/08/12 13:57:34;;;;;;;10.90;2.60;;;23.20;99.90;;;;;;5096337;28;20048;-86
2023/08/12 14:00:01;;;;;;;10.80;2.47;;;22.90;99.90;;;;;;5055912;28;20045;-85
2023/08/12 14:02:37;;;;;;;13.35;1.95;;;23.00;99.90;;;;;;5085674;28;20052;-86
2023/08/12 14:05:04;;;;;;;8.90;2.00;;;23.10;99.90;;;;;;5080402;28;20040;-83
2023/08/12 14:07:32;;;;;;;10.32;2.30;;;23.00;99.90;;;;;;5081812;28;20043;-82
2023/08/12 14:09:59;;;;;;;7.47;1.83;;;22.90;99.90;;;;;;5072648;28;20037;-83
2023/08/12 14:12:26;;;;;;;10.68;2.05;;;22.80;99.90;;;;;;5056899;28;20672;-83
2023/08/12 14:14:52;;;;;;;9.40;2.47;;;23.30;99.90;;;;;;5091343;28;20044;-83
2023/08/12 14:19:59;;;;;;;11.27;2.63;;;23.80;99.90;;;;;;5097073;28;20054;-82
2023/08/12 14:22:26;;;;;;;13.10;2.80;;;24.00;99.90;;;;;;5096963;28;20036;-83
2023/08/12 14:24:53;;;;;;;9.43;1.90;;;23.40;99.90;;;;;;5097385;28;20044;-84
2023/08/12 14:27:26;;;;;;;13.07;3.00;;;23.40;99.90;;;;;;5094878;28;20036;-83